Luis Lopez, New Mexico
Current Conditions -  °F | °C
As of 10:55 AM on Wednesday 28 Jan 2015 (Local Time) from KONM Reporting Station
Clear Clear  
Wind Chill: 57°   Ceiling: Unl
Heat Index: 57°   Visibility: 10mi
Dew Point: 38°   Wind: 5mph
Humidity: 50%   Direction: 80°E
Pressure: 30.26"   Gusts: NA
Location:  33.8946°N, 106.565°W
Report Text: KONM 281755Z AUTO 08004KT 10SM CLR 14/04 A3026 RMK AO2 T01390035 10139 20008
Loading
Personal Weather Stations






























Interactive Weather Map New forecast layout! Learn more

10-Day Weather Forecast

Advertisements
Track Severe Weather on mobile